createdAt,value
2022-09-06T00:03:52.461Z,100
2022-09-06T00:13:54.340Z,100
2022-09-06T00:33:58.792Z,100
2022-09-06T00:44:00.563Z,100
2022-09-06T00:54:02.824Z,100
2022-09-06T01:04:04.613Z,100
2022-09-06T01:14:07.216Z,100
2022-09-06T01:24:09.403Z,100
2022-09-06T01:44:14.384Z,100
2022-09-06T01:54:16.633Z,100
2022-09-06T02:04:18.485Z,100
2022-09-06T02:14:21.109Z,100
2022-09-06T02:24:23.383Z,100
2022-09-06T02:34:25.145Z,100
2022-09-06T02:54:29.059Z,100
2022-09-06T03:04:30.811Z,100
2022-09-06T03:14:33.357Z,100
2022-09-06T03:24:35.524Z,100
2022-09-06T03:34:37.614Z,100
2022-09-06T03:44:39.357Z,100
2022-09-06T03:54:41.573Z,100
2022-09-06T04:04:43.880Z,100
2022-09-06T04:14:45.898Z,100
2022-09-06T04:34:49.929Z,100
2022-09-06T04:44:51.750Z,100
2022-09-06T04:54:53.509Z,100
2022-09-06T05:04:55.375Z,100
2022-09-06T05:14:57.224Z,100
2022-09-06T05:24:59.335Z,100
2022-09-06T05:35:01.814Z,100
2022-09-06T05:45:04.411Z,100
2022-09-06T05:55:06.641Z,100
2022-09-06T06:05:08.526Z,100
2022-09-06T06:15:10.275Z,100
2022-09-06T06:25:12.652Z,100
2022-09-06T06:35:14.509Z,100
2022-09-06T06:45:16.890Z,100
2022-09-06T06:55:19.550Z,100
2022-09-06T07:08:00.092Z,100
2022-09-06T07:25:35.625Z,100
2022-09-06T07:35:37.767Z,100
2022-09-06T07:45:40.389Z,100
2022-09-06T07:55:42.211Z,100
2022-09-06T08:15:46.872Z,100
2022-09-06T08:25:49.321Z,100
2022-09-06T08:35:51.933Z,100
2022-09-06T08:45:55.801Z,100
2022-09-06T08:55:56.097Z,100
2022-09-06T09:05:58.068Z,100
2022-09-06T09:15:59.953Z,100
2022-09-06T09:26:01.658Z,100
2022-09-06T09:46:06.387Z,100
2022-09-06T09:56:08.767Z,100
2022-09-06T10:16:13.680Z,100
2022-09-06T10:26:15.157Z,100
2022-09-06T10:36:17.378Z,100
2022-09-06T10:46:19.994Z,100
2022-09-06T10:56:22.445Z,100
2022-09-06T11:06:26.692Z,100
2022-09-06T11:16:26.298Z,100
2022-09-06T11:26:27.889Z,100
2022-09-06T11:36:29.979Z,100
2022-09-06T11:46:31.852Z,100
2022-09-06T11:56:33.955Z,100
2022-09-06T12:06:35.887Z,97
2022-09-06T12:16:38.258Z,98
2022-09-06T12:36:43.299Z,93
2022-09-06T12:46:45.718Z,90
2022-09-06T13:06:50.283Z,91
2022-09-06T13:16:52.542Z,84
2022-09-06T13:26:54.803Z,83
2022-09-06T13:36:57.255Z,86
2022-09-06T13:46:59.831Z,86
2022-09-06T13:57:01.800Z,88
2022-09-06T14:07:03.531Z,86
2022-09-06T14:17:05.672Z,91
2022-09-06T14:27:07.676Z,83
2022-09-06T14:37:13.365Z,76
2022-09-06T14:47:12.358Z,74
2022-09-06T15:07:17.006Z,66
2022-09-06T15:17:18.905Z,66
2022-09-06T15:27:20.880Z,61
2022-09-06T15:37:22.643Z,61
2022-09-06T15:47:24.414Z,60
2022-09-06T15:57:26.476Z,64
2022-09-06T16:07:28.437Z,56
2022-09-06T16:17:30.899Z,55
2022-09-06T16:27:32.883Z,49
2022-09-06T16:47:37.441Z,52
2022-09-06T16:57:39.695Z,53
2022-09-06T17:07:42.276Z,58
2022-09-06T17:17:44.362Z,62
2022-09-06T17:27:46.681Z,65
2022-09-06T17:37:48.529Z,73
2022-09-06T17:47:50.780Z,87
2022-09-06T17:57:53.269Z,99
2022-09-06T18:07:55.631Z,100
2022-09-06T18:17:57.824Z,100
2022-09-06T18:27:59.977Z,100
2022-09-06T18:48:04.474Z,100
2022-09-06T18:58:06.746Z,100
2022-09-06T19:08:08.768Z,100
2022-09-06T20:28:27.705Z,100
2022-09-06T20:38:30.457Z,100
2022-09-06T20:48:32.754Z,100
2022-09-06T20:58:35.321Z,100
2022-09-06T21:08:40.625Z,100
2022-09-06T21:18:38.947Z,100
2022-09-06T21:28:40.998Z,100
2022-09-06T21:38:42.860Z,100
2022-09-06T21:48:44.890Z,100
2022-09-06T21:58:47.458Z,100
2022-09-06T22:08:49.417Z,100
2022-09-06T22:18:51.841Z,100
2022-09-06T22:28:53.531Z,100
2022-09-06T22:48:57.388Z,100
2022-09-06T22:58:59.537Z,100
2022-09-06T23:09:01.205Z,100
2022-09-06T23:19:03.314Z,100
2022-09-06T23:29:05.200Z,100
2022-09-06T23:39:07.532Z,100
2022-09-06T23:49:09.299Z,100
2022-09-06T23:59:11.717Z,100
